ADDS METAR Data INFO
IDs: Format: Raw Decoded Include TAF

Data at: 0902 UTC 20 Oct 2017

KJWG 200855Z AUTO 17008KT 10SM CLR 17/13 A3004 RMK AO2 T01720134
KJWG 200835Z AUTO 16009KT 10SM CLR 17/13 A3004 RMK AO2 T01730133
KJWG 200815Z AUTO 16007KT 10SM CLR 17/13 A3004 RMK AO2 T01700131
KJWG 200755Z AUTO 16008KT 10SM CLR 17/13 A3004 RMK AO2 T01680130
KJWG 200735Z AUTO 16007KT 10SM CLR 17/13 A3004 RMK AO2 T01720130
KJWG 200715Z AUTO 16007G14KT 10SM CLR 17/13 A3005 RMK AO2 T01720128
KJWG 200655Z AUTO 16009KT 10SM CLR 17/12 A3006 RMK AO2 T01700124
KJWG 200635Z AUTO 16007KT 10SM CLR 17/12 A3006 RMK AO2 T01660118
KJWG 200615Z AUTO 15006KT 10SM CLR 17/12 A3006 RMK AO2 T01680116
KJWG 200555Z AUTO 16008KT 10SM CLR 18/12 A3006 RMK AO2 T01750116 10213 20166 402520135
KJWG 200535Z AUTO 16008KT 10SM CLR 18/12 A3007 RMK AO2 T01760115
KJWG 200515Z AUTO 15008KT 10SM CLR 17/12 A3007 RMK AO2 T01730115
KJWG 200455Z AUTO 16007KT 10SM CLR 17/12 A3007 RMK AO2 T01710117
KJWG 200435Z AUTO 15007KT 10SM CLR 17/12 A3008 RMK AO2 T01720120
KJWG 200415Z AUTO 15005KT 10SM CLR 17/12 A3008 RMK AO2 T01730123
KJWG 200355Z AUTO 15006KT 10SM CLR 17/13 A3008 RMK AO2 T01720125
KJWG 200335Z AUTO 14005KT 10SM CLR 17/12 A3008 RMK AO2 T01670123
KJWG 200315Z AUTO 15003KT 10SM CLR 17/12 A3007 RMK AO2 T01680122
KJWG 200255Z AUTO 14005KT 10SM CLR 17/12 A3007 RMK AO2 T01710123
KJWG 200235Z AUTO 14004KT 10SM CLR 18/13 A3007 RMK AO2 T01760125
KJWG 200215Z AUTO 15005KT 10SM CLR 17/12 A3007 RMK AO2 T01740123
KJWG 200155Z AUTO 15005KT 10SM CLR 18/12 A3006 RMK AO2 T01780122
KJWG 200135Z AUTO 14005KT 10SM CLR 18/12 A3006 RMK AO2 T01840121
KJWG 200115Z AUTO 14004KT 10SM CLR 19/12 A3006 RMK AO2 T01880120
KJWG 200055Z AUTO 13006KT 10SM CLR 20/12 A3006 RMK AO2 T01960120
KJWG 200035Z AUTO 13006KT 10SM CLR 20/12 A3006 RMK AO2 T02040119
KJWG 200015Z AUTO 14006KT 10SM CLR 21/12 A3005 RMK AO2 T02090119
KJWG 192355Z AUTO 14004KT 10SM CLR 21/12 A3004 RMK AO2 T02140120 10252 20214
KJWG 192335Z AUTO 15007KT 10SM CLR 23/12 A3005 RMK AO2 T02250118
KJWG 192315Z AUTO 15009G14KT 10SM CLR 23/12 A3004 RMK AO2 T02320119
KJWG 192255Z AUTO 16009KT 10SM CLR 24/12 A3005 RMK AO2 T02380116
KJWG 192235Z AUTO 16010G15KT 10SM CLR 24/11 A3005 RMK AO2 T02390111
KJWG 192215Z AUTO 15009G18KT 10SM CLR 25/11 A3005 RMK AO2 T02520109
KJWG 192155Z AUTO 16014G17KT 10SM CLR 25/11 A3005 RMK AO2 T02500113
KJWG 192135Z AUTO 16011G17KT 10SM CLR 25/11 A3005 RMK AO2 T02500109
KJWG 192115Z AUTO 16008G14KT 10SM CLR 25/13 A3005 RMK AO2 T02450132
KJWG 192055Z AUTO 15012G17KT 10SM CLR 24/13 A3005 RMK AO2 T02430132
KJWG 192035Z AUTO 16014KT 10SM CLR 24/13 A3006 RMK AO2 T02440128
KJWG 192015Z AUTO 18009G17KT 10SM CLR 24/13 A3006 RMK AO2 T02410130
KJWG 191955Z AUTO 17013G17KT 10SM CLR 24/13 A3006 RMK AO2 T02440131
KJWG 191935Z AUTO 17011G15KT 10SM CLR 25/13 A3007 RMK AO2 T02450127
KJWG 191915Z AUTO 17012G17KT 10SM CLR 25/13 A3008 RMK AO2 T02460131
KJWG 191855Z AUTO 19011G18KT 10SM CLR 24/13 A3009 RMK AO2 T02440130
KJWG 191835Z AUTO 20014G18KT 10SM CLR 24/13 A3010 RMK AO2 T02420129
KJWG 191815Z AUTO 20016G21KT 10SM CLR 24/12 A3010 RMK AO2 T02410123
KJWG 191755Z AUTO 19011G19KT 10SM CLR 24/13 A3011 RMK AO2 T02400126 10240 20135
KJWG 191735Z AUTO 19013G18KT 10SM CLR 24/12 A3012 RMK AO2 T02360123
KJWG 191715Z AUTO 18013G18KT 10SM CLR 23/12 A3012 RMK AO2 T02320121
KJWG 191655Z AUTO 20013KT 10SM CLR 22/12 A3013 RMK AO2 T02200120
KJWG 191635Z AUTO 19011KT 10SM CLR 22/12 RMK AO2 T02160117
KJWG 191615Z AUTO 19009G16KT 10SM CLR 21/12 A3013 RMK AO2 T02100117
KJWG 191555Z AUTO 19009KT 10SM CLR 20/12 A3013 RMK AO2 T01960115
KJWG 191535Z AUTO 19010KT 10SM CLR 19/11 A3013 RMK AO2 T01870109
KJWG 191515Z AUTO 19009KT 10SM CLR 19/11 A3013 RMK AO2 T01860110
KJWG 191455Z AUTO 17007KT 10SM CLR 17/11 A3013 RMK AO2 T01700106
KJWG 191435Z AUTO 19008KT 10SM CLR 16/10 A3012 RMK AO2 T01600103
KJWG 191415Z AUTO 18007KT 10SM CLR 15/10 A3011 RMK AO2 T01520102
KJWG 191355Z AUTO 18006KT 10SM CLR 14/10 A3011 RMK AO2 T01420098
KJWG 191335Z AUTO 19006KT 10SM CLR 14/10 A3010 RMK AO2 T01390095
KJWG 191315Z AUTO 18004KT 10SM CLR 14/09 A3009 RMK AO2 T01350093
KJWG 191255Z AUTO 18007KT 10SM CLR 14/09 A3009 RMK AO2 T01380091
KJWG 191235Z AUTO 18006KT 10SM CLR 14/09 A3009 RMK AO2 T01380091
KJWG 191215Z AUTO 18008KT 10SM CLR 14/09 A3008 RMK AO2 T01410090
KJWG 191155Z AUTO 18007KT 10SM CLR 14/09 A3008 RMK AO2 T01400090 10174 20140
KJWG 191135Z AUTO 17007KT 10SM CLR 14/09 A3008 RMK AO2 T01410090
KJWG 191115Z AUTO 18007KT 10SM CLR 15/09 A3008 RMK AO2 T01470090
KJWG 191055Z AUTO 18006KT 10SM CLR 15/09 A3007 RMK AO2 T01450090
KJWG 191035Z AUTO 18005KT 10SM CLR 15/09 A3007 RMK AO2 T01460089
KJWG 191015Z AUTO 17005KT 10SM CLR 14/09 A3007 RMK AO2 T01440088
KJWG 190955Z AUTO 18005KT 10SM CLR 15/09 A3007 RMK AO2 T01480089
KJWG 190935Z AUTO 17006KT 10SM CLR 15/09 A3007 RMK AO2 T01520087
KJWG 190915Z AUTO 17008KT 10SM CLR 16/09 A3007 RMK AO2 T01580087
KJWG 190855Z AUTO 17006KT 10SM CLR 16/09 A3007 RMK AO2 T01600087
KJWG 190835Z AUTO 18006KT 10SM CLR 16/09 A3007 RMK AO2 T01620088
KJWG 190815Z AUTO 17007KT 10SM CLR 17/09 A3007 RMK AO2 T01650088
KJWG 190755Z AUTO 18007KT 10SM CLR 17/09 A3007 RMK AO2 T01670088
KJWG 190735Z AUTO 18008KT 10SM CLR 17/09 A3007 RMK AO2 T01720088
KJWG 190715Z AUTO 18009KT 10SM CLR 17/09 A3007 RMK AO2 T01730090
KJWG 190655Z AUTO 17007KT 10SM CLR 17/09 A3007 RMK AO2 T01700092
KJWG 190635Z AUTO 18006KT 10SM CLR 17/10 A3007 RMK AO2 T01680095
KJWG 190615Z AUTO 19007KT 10SM CLR 17/10 A3007 RMK AO2 T01710096
KJWG 190555Z AUTO 18007KT 10SM CLR 17/10 A3007 RMK AO2 T01700097 10226 20170 402650112
KJWG 190535Z AUTO 18008KT 10SM CLR 17/10 A3007 RMK AO2 T01720100
KJWG 190515Z AUTO 18008G14KT 10SM CLR 18/10 A3007 RMK AO2 T01760100
KJWG 190455Z AUTO 17008KT 10SM CLR 18/10 A3007 RMK AO2 T01770100
KJWG 190435Z AUTO 18006KT 10SM CLR 18/10 A3007 RMK AO2 T01780100
KJWG 190415Z AUTO 17005KT 10SM CLR 18/10 A3007 RMK AO2 T01750100
KJWG 190355Z AUTO 17005KT 10SM CLR 18/10 A3007 RMK AO2 T01800100
KJWG 190335Z AUTO 16005KT 10SM CLR 18/10 A3008 RMK AO2 T01840100
KJWG 190315Z AUTO 17006KT 10SM CLR 18/10 A3007 RMK AO2 T01840100
KJWG 190255Z AUTO 18006KT 10SM CLR 18/10 A3006 RMK AO2 T01840100
KJWG 190235Z AUTO 18006KT 10SM CLR 19/10 A3006 RMK AO2 T01860100
KJWG 190215Z AUTO 18005KT 10SM CLR 18/10 A3006 RMK AO2 T01840101
KJWG 190155Z AUTO 18005KT 10SM CLR 19/10 A3006 RMK AO2 T01850101
KJWG 190135Z AUTO 18006KT 10SM CLR 20/10 A3006 RMK AO2 T01950102
KJWG 190115Z AUTO 17006KT 10SM CLR 20/10 A3005 RMK AO2 T02020101
KJWG 190055Z AUTO 16006KT 10SM CLR 21/10 A3005 RMK AO2 T02120099
KJWG 190035Z AUTO 17006KT 10SM CLR 21/10 A3004 RMK AO2 T02120100
KJWG 190015Z AUTO 17006KT 10SM CLR 22/10 A3004 RMK AO2 T02190099
KJWG 182355Z AUTO 16005KT 10SM CLR 23/10 A3003 RMK AO2 T02270100 10265 20227
KJWG 182335Z AUTO 17005KT 10SM CLR 24/10 A3003 RMK AO2 T02380102
KJWG 182315Z AUTO 17007KT 10SM CLR 25/10 A3002 RMK AO2 T02450101
KJWG 182255Z AUTO 18009KT 10SM CLR 25/10 A3002 RMK AO2 T02540102
KJWG 182235Z AUTO 17010KT 10SM CLR 26/10 A3002 RMK AO2 T02580104
KJWG 182215Z AUTO 18007KT 10SM CLR 26/11 A3002 RMK AO2 T02580112
KJWG 182155Z AUTO 18010KT 10SM CLR 26/12 A3002 RMK AO2 T02620116
KJWG 182135Z AUTO 17009G16KT 10SM CLR 26/12 A3001 RMK AO2 T02630116
KJWG 182115Z AUTO 18010G17KT 10SM CLR 26/12 A3001 RMK AO2 T02630116